createdAt,value
2019-03-26T00:02:31.208Z,102010.99
2019-03-26T00:05:38.875Z,102013.53
2019-03-26T00:08:55.840Z,102018.62
2019-03-26T00:12:12.776Z,102023.29
2019-03-26T00:15:20.596Z,102021.19
2019-03-26T00:18:28.462Z,102023.72
2019-03-26T00:21:45.465Z,102024.94
2019-03-26T00:24:53.375Z,102021.56
2019-03-26T00:28:01.114Z,102016.45
2019-03-26T00:31:18.323Z,102019.01
2019-03-26T00:34:26.173Z,102024.51
2019-03-26T00:37:34.014Z,102019.44
2019-03-26T00:40:51.304Z,102014.69
2019-03-26T00:43:59.136Z,102022.78
2019-03-26T00:47:06.878Z,102021.52
2019-03-26T00:50:23.824Z,102026.59
2019-03-26T00:53:31.696Z,102026.13
2019-03-26T00:56:38.944Z,102023.17
2019-03-26T00:59:46.631Z,102023.19
2019-03-26T01:03:03.876Z,102021.02
2019-03-26T01:06:11.835Z,102025.30
2019-03-26T01:09:19.675Z,102030.41
2019-03-26T01:12:36.819Z,102029.11
2019-03-26T01:15:44.595Z,102024.45
2019-03-26T01:18:52.434Z,102024.41
2019-03-26T01:22:09.487Z,102016.75
2019-03-26T01:25:17.272Z,102015.09
2019-03-26T01:28:25.134Z,102023.14
2019-03-26T01:31:42.169Z,102023.98
2019-03-26T01:34:50.209Z,102028.22
2019-03-26T01:37:57.959Z,102020.57
2019-03-26T01:41:15.032Z,102015.07
2019-03-26T01:44:22.943Z,102025.25
2019-03-26T01:47:30.836Z,102021.02
2019-03-26T01:50:47.854Z,102017.57
2019-03-26T01:53:55.787Z,102004.02
2019-03-26T01:57:03.547Z,102003.22
2019-03-26T02:00:20.575Z,102000.75
2019-03-26T02:03:28.511Z,102004.55
2019-03-26T02:06:36.257Z,102001.58
2019-03-26T02:09:53.425Z,101994.39
2019-03-26T02:13:01.296Z,102000.29
2019-03-26T02:16:09.193Z,101997.73
2019-03-26T02:19:26.208Z,101988.77
2019-03-26T02:22:33.872Z,101995.97
2019-03-26T02:25:41.622Z,101992.56
2019-03-26T02:28:49.435Z,101993.06
2019-03-26T02:31:57.263Z,101984.55
2019-03-26T02:35:17.831Z,101979.13
2019-03-26T02:38:14.785Z,101981.23
2019-03-26T02:41:22.447Z,101980.38
2019-03-26T02:44:30.189Z,101989.67
2019-03-26T02:47:38.017Z,101985.52
2019-03-26T02:50:45.862Z,101990.15
2019-03-26T02:54:02.844Z,101985.45
2019-03-26T02:57:10.677Z,101988.02
2019-03-26T03:00:18.603Z,101983.74
2019-03-26T03:03:35.684Z,101978.19
2019-03-26T03:06:43.348Z,101979.48
2019-03-26T03:09:51.158Z,101975.68
2019-03-26T03:12:58.725Z,101978.30
2019-03-26T03:16:15.769Z,101966.38
2019-03-26T03:19:23.519Z,101970.20
2019-03-26T03:22:31.376Z,101973.59
2019-03-26T03:25:48.541Z,101974.09
2019-03-26T03:28:56.303Z,101965.59
2019-03-26T03:32:03.983Z,101976.63
2019-03-26T03:35:12.268Z,101966.02
2019-03-26T03:38:20.096Z,101971.15
2019-03-26T03:41:37.170Z,101958.39
2019-03-26T03:44:45.044Z,101958.39
2019-03-26T03:47:52.877Z,101959.25
2019-03-26T03:51:13.394Z,101952.89
2019-03-26T03:54:30.603Z,101955.42
2019-03-26T03:57:52.791Z,101961.81
2019-03-26T04:01:00.087Z,101965.19
2019-03-26T04:04:07.923Z,101958.02
2019-03-26T04:07:24.764Z,101956.70
2019-03-26T04:10:32.608Z,101963.86
2019-03-26T04:13:40.278Z,101959.61
2019-03-26T04:16:47.945Z,101957.05
2019-03-26T04:19:55.799Z,101950.22
2019-03-26T04:23:03.728Z,101954.02
2019-03-26T04:26:20.778Z,101951.41
2019-03-26T04:29:28.684Z,101951.86
2019-03-26T04:32:36.527Z,101946.31
2019-03-26T04:35:59.554Z,101953.49
2019-03-26T04:39:07.732Z,101952.27
2019-03-26T04:42:15.467Z,101952.25
2019-03-26T04:45:23.241Z,101946.32
2019-03-26T04:48:30.907Z,101945.45
2019-03-26T04:51:38.732Z,101955.68
2019-03-26T04:54:46.484Z,101958.54
2019-03-26T04:57:54.233Z,101959.05
2019-03-26T05:01:01.921Z,101948.33
2019-03-26T05:04:18.781Z,101950.79
2019-03-26T05:07:26.610Z,101959.70
2019-03-26T05:10:34.426Z,101944.41
2019-03-26T05:13:51.437Z,101947.77
2019-03-26T05:16:59.350Z,101947.73
2019-03-26T05:20:07.600Z,101942.27
2019-03-26T05:23:15.252Z,101937.13
2019-03-26T05:26:23.013Z,101940.95
2019-03-26T05:29:30.681Z,101938.47
2019-03-26T05:32:47.459Z,101935.86
2019-03-26T05:35:55.252Z,101945.19
2019-03-26T05:39:04.063Z,101939.31
2019-03-26T05:42:11.740Z,101937.13
2019-03-26T05:45:19.539Z,101932.50
2019-03-26T05:48:27.250Z,101933.31
2019-03-26T05:51:35.187Z,101935.03
2019-03-26T05:54:52.336Z,101926.50
2019-03-26T05:58:00.094Z,101929.48
2019-03-26T06:01:07.868Z,101928.20
2019-03-26T06:04:25.168Z,101929.44
2019-03-26T06:07:33.595Z,101933.30
2019-03-26T06:10:50.710Z,101937.93
2019-03-26T06:13:58.553Z,101929.50
2019-03-26T06:17:06.423Z,101929.48
2019-03-26T06:20:23.441Z,101923.88
2019-03-26T06:23:31.243Z,101919.70
2019-03-26T06:26:39.184Z,101924.66
2019-03-26T06:29:56.289Z,101925.53
2019-03-26T06:33:04.131Z,101929.36
2019-03-26T06:36:11.862Z,101924.63
2019-03-26T06:39:28.928Z,101918.20
2019-03-26T06:42:36.797Z,101916.56
2019-03-26T06:45:44.539Z,101907.95
2019-03-26T06:48:52.276Z,101903.28
2019-03-26T06:52:00.093Z,101910.07
2019-03-26T06:55:08.437Z,101912.15
2019-03-26T06:58:16.108Z,101904.13
2019-03-26T07:01:23.258Z,101919.42
2019-03-26T07:04:30.930Z,101917.33
2019-03-26T07:07:38.681Z,101925.76
2019-03-26T07:10:46.504Z,101927.42
2019-03-26T07:13:54.291Z,101934.98
2019-03-26T07:17:11.316Z,101925.92
2019-03-26T07:20:28.264Z,101926.30
2019-03-26T07:23:36.170Z,101935.63
2019-03-26T07:26:43.961Z,101922.39
2019-03-26T07:30:01.054Z,101918.99
2019-03-26T07:33:08.971Z,101920.59
2019-03-26T07:36:16.611Z,101914.59
2019-03-26T07:39:33.741Z,101927.59
2019-03-26T07:42:41.601Z,101920.37
2019-03-26T07:45:49.451Z,101923.27
2019-03-26T07:49:06.617Z,101928.70
2019-03-26T07:52:15.745Z,101920.55
2019-03-26T07:55:23.772Z,101921.91
2019-03-26T07:58:41.013Z,101915.38
2019-03-26T08:01:48.930Z,101917.98
2019-03-26T08:04:57.132Z,101929.02
2019-03-26T08:08:05.038Z,101918.33
2019-03-26T08:11:12.856Z,101917.44
2019-03-26T08:14:29.894Z,101908.44
2019-03-26T08:17:37.791Z,101900.34
2019-03-26T08:20:45.768Z,101895.23
2019-03-26T08:23:53.588Z,101891.74
2019-03-26T08:27:01.349Z,101893.30
2019-03-26T08:30:18.576Z,101884.77
2019-03-26T08:33:26.237Z,101889.83
2019-03-26T08:36:32.366Z,101872.19
2019-03-26T08:39:49.851Z,101869.55
2019-03-26T08:42:57.700Z,101875.36
2019-03-26T08:46:05.435Z,101868.81
2019-03-26T08:49:22.377Z,101878.11
2019-03-26T08:52:39.417Z,101872.65
2019-03-26T08:55:47.238Z,101897.46
2019-03-26T08:58:55.049Z,101889.83
2019-03-26T09:02:12.135Z,101903.80
2019-03-26T09:05:19.867Z,101915.39
2019-03-26T09:08:27.615Z,101912.81
2019-03-26T09:11:44.828Z,101918.03
2019-03-26T09:14:53.063Z,101920.23
2019-03-26T09:18:01.236Z,101924.95
2019-03-26T09:21:09.224Z,101916.37
2019-03-26T09:24:26.454Z,101912.53
2019-03-26T09:27:34.340Z,101918.78
2019-03-26T09:30:41.982Z,101905.91
2019-03-26T09:33:59.178Z,101901.06
2019-03-26T09:37:07.003Z,101913.33
2019-03-26T09:40:15.072Z,101912.36
2019-03-26T09:43:31.953Z,101918.86
2019-03-26T09:46:38.197Z,101905.04
2019-03-26T09:49:45.808Z,101920.70
2019-03-26T09:53:03.553Z,101963.53
2019-03-26T09:56:11.395Z,101958.29
2019-03-26T09:59:19.378Z,101933.80
2019-03-26T10:02:27.239Z,101928.78
2019-03-26T10:05:34.916Z,101924.45
2019-03-26T10:08:52.958Z,101918.73
2019-03-26T10:12:00.720Z,101926.10
2019-03-26T10:15:07.315Z,101931.03
2019-03-26T10:18:14.955Z,101937.04
2019-03-26T10:21:32.004Z,101941.15
2019-03-26T10:24:39.867Z,101940.72
2019-03-26T10:27:47.634Z,101938.63
2019-03-26T10:31:04.821Z,101929.33
2019-03-26T10:34:11.971Z,101936.53
2019-03-26T10:37:19.797Z,101928.61
2019-03-26T10:40:35.323Z,101923.25
2019-03-26T10:43:41.576Z,101930.52
2019-03-26T10:46:49.373Z,101926.16
2019-03-26T10:49:57.063Z,101924.50
2019-03-26T10:53:14.284Z,101933.55
2019-03-26T10:56:22.139Z,101918.13
2019-03-26T10:59:29.920Z,101925.17
2019-03-26T11:02:47.272Z,101922.75
2019-03-26T11:05:55.133Z,101919.31
2019-03-26T11:09:03.355Z,101915.07
2019-03-26T11:12:11.020Z,101909.67
2019-03-26T11:15:18.837Z,101900.64
2019-03-26T11:18:35.924Z,101896.76
2019-03-26T11:21:43.682Z,101889.22
2019-03-26T11:24:51.423Z,101890.39
2019-03-26T11:28:08.705Z,101886.99
2019-03-26T11:31:16.658Z,101894.41
2019-03-26T11:34:24.507Z,101909.28
2019-03-26T11:37:32.276Z,101902.20
2019-03-26T11:40:40.035Z,101909.63
2019-03-26T11:43:46.006Z,101924.27
2019-03-26T11:47:03.113Z,101908.76
2019-03-26T11:50:10.493Z,101919.30
2019-03-26T11:53:18.446Z,101936.45
2019-03-26T11:56:26.184Z,101945.65
2019-03-26T11:59:42.916Z,101940.04
2019-03-26T12:02:50.768Z,101938.10
2019-03-26T12:05:58.544Z,101928.67
2019-03-26T12:09:15.778Z,101918.52
2019-03-26T12:12:23.609Z,101939.89
2019-03-26T12:15:31.363Z,101936.46
2019-03-26T12:18:48.692Z,101917.70
2019-03-26T12:21:56.556Z,101927.09
2019-03-26T12:25:04.547Z,101927.94
2019-03-26T12:28:21.417Z,101920.26
2019-03-26T12:31:29.290Z,101921.87
2019-03-26T12:34:37.131Z,101917.97
2019-03-26T12:37:54.275Z,101917.70
2019-03-26T12:41:01.934Z,101913.94
2019-03-26T12:44:09.681Z,101924.50
2019-03-26T12:47:27.096Z,101922.38
2019-03-26T12:50:34.779Z,101928.91
2019-03-26T12:53:40.828Z,101931.84
2019-03-26T12:56:48.658Z,101932.64
2019-03-26T12:59:56.403Z,101934.47
2019-03-26T13:03:04.557Z,101932.47
2019-03-26T13:06:12.387Z,101939.62
2019-03-26T13:09:20.266Z,101936.16
2019-03-26T13:12:38.967Z,101925.02
2019-03-26T13:15:46.722Z,101923.05
2019-03-26T13:18:54.464Z,101935.09
2019-03-26T13:22:11.723Z,101939.45
2019-03-26T13:25:19.488Z,101937.70
2019-03-26T13:28:26.757Z,101938.98
2019-03-26T13:31:34.753Z,101946.38
2019-03-26T13:34:51.762Z,101942.30
2019-03-26T13:37:59.577Z,101937.47
2019-03-26T13:41:07.304Z,101946.91
2019-03-26T13:44:24.374Z,101940.73
2019-03-26T13:47:41.350Z,101951.89
2019-03-26T13:50:49.272Z,101953.72
2019-03-26T13:53:57.120Z,101958.66
2019-03-26T13:57:13.934Z,101970.06
2019-03-26T14:00:35.770Z,101962.95
2019-03-26T14:03:43.563Z,101966.99
2019-03-26T14:06:52.532Z,101974.88
2019-03-26T14:10:10.318Z,101967.71
2019-03-26T14:13:18.185Z,101973.69
2019-03-26T14:16:25.929Z,101973.70
2019-03-26T14:19:42.750Z,101968.54
2019-03-26T14:22:50.544Z,101972.39
2019-03-26T14:25:58.281Z,101973.70
2019-03-26T14:29:06.127Z,101976.70
2019-03-26T14:32:13.795Z,101989.87
2019-03-26T14:35:21.733Z,101991.23
2019-03-26T14:38:38.850Z,101992.27
2019-03-26T14:41:46.728Z,101988.28
2019-03-26T14:44:54.447Z,101992.62
2019-03-26T14:48:11.632Z,101990.98
2019-03-26T14:51:19.302Z,101987.53
2019-03-26T14:54:27.242Z,101997.77
2019-03-26T14:57:44.337Z,102004.50
2019-03-26T15:01:01.308Z,101998.77
2019-03-26T15:04:09.051Z,102005.47
2019-03-26T15:07:16.714Z,101997.56
2019-03-26T15:10:34.036Z,102000.76
2019-03-26T15:13:41.699Z,102007.06
2019-03-26T15:16:49.379Z,102001.94
2019-03-26T15:19:57.115Z,102007.84
2019-03-26T15:23:05.090Z,102020.61
2019-03-26T15:26:12.761Z,102018.94
2019-03-26T15:29:30.088Z,102019.57
2019-03-26T15:32:38.644Z,102018.45
2019-03-26T15:35:55.717Z,102022.46
2019-03-26T15:39:05.312Z,102011.75
2019-03-26T15:42:13.045Z,102007.83
2019-03-26T15:45:29.996Z,102007.11
2019-03-26T15:48:37.684Z,102009.13
2019-03-26T15:51:45.767Z,102007.07
2019-03-26T15:55:02.790Z,102004.30
2019-03-26T15:58:10.815Z,102016.05
2019-03-26T16:01:18.823Z,102018.95
2019-03-26T16:04:26.585Z,102006.90
2019-03-26T16:07:34.335Z,102008.73
2019-03-26T16:10:51.572Z,102006.17
2019-03-26T16:13:59.331Z,102019.75
2019-03-26T16:17:07.074Z,102025.27
2019-03-26T16:20:15.601Z,102024.21
2019-03-26T16:23:23.395Z,102030.69
2019-03-26T16:26:40.393Z,102028.48
2019-03-26T16:29:48.390Z,102034.59
2019-03-26T16:32:56.219Z,102038.06
2019-03-26T16:36:13.139Z,102045.92
2019-03-26T16:39:21.051Z,102052.08
2019-03-26T16:42:28.933Z,102045.12
2019-03-26T16:45:46.269Z,102041.19
2019-03-26T16:48:54.120Z,102054.93
2019-03-26T16:52:01.851Z,102053.68
2019-03-26T16:55:18.700Z,102051.84
2019-03-26T16:58:26.361Z,102059.38
2019-03-26T17:01:34.084Z,102053.41
2019-03-26T17:04:41.756Z,102056.03
2019-03-26T17:07:58.798Z,102060.73
2019-03-26T17:11:06.747Z,102068.25
2019-03-26T17:14:14.562Z,102069.19
2019-03-26T17:17:31.696Z,102068.22
2019-03-26T17:20:39.593Z,102071.88
2019-03-26T17:23:47.438Z,102073.56
2019-03-26T17:26:55.372Z,102083.02
2019-03-26T17:30:03.717Z,102091.92
2019-03-26T17:33:11.541Z,102089.09
2019-03-26T17:36:19.403Z,102087.04
2019-03-26T17:39:27.342Z,102102.92
2019-03-26T17:42:35.226Z,102105.27
2019-03-26T17:45:52.839Z,102103.52
2019-03-26T17:49:00.757Z,102113.02
2019-03-26T17:52:17.993Z,102113.83
2019-03-26T17:55:25.945Z,102123.58
2019-03-26T17:58:33.624Z,102121.39
2019-03-26T18:01:50.626Z,102128.66
2019-03-26T18:04:58.811Z,102133.81
2019-03-26T18:08:05.211Z,102132.13
2019-03-26T18:11:12.871Z,102134.73
2019-03-26T18:14:20.826Z,102144.88
2019-03-26T18:17:37.914Z,102134.22
2019-03-26T18:20:45.663Z,102148.84
2019-03-26T18:23:53.587Z,102139.80
2019-03-26T18:27:10.676Z,102137.69
2019-03-26T18:30:18.556Z,102140.84
2019-03-26T18:33:26.428Z,102149.31
2019-03-26T18:36:43.496Z,102149.41
2019-03-26T18:39:51.263Z,102158.01
2019-03-26T18:42:59.047Z,102163.21
2019-03-26T18:46:16.291Z,102160.50
2019-03-26T18:49:24.095Z,102175.91
2019-03-26T18:52:31.752Z,102179.64
2019-03-26T18:55:49.043Z,102178.00
2019-03-26T18:58:56.806Z,102185.73
2019-03-26T19:02:04.538Z,102176.81
2019-03-26T19:05:21.691Z,102177.74
2019-03-26T19:08:39.899Z,102184.05
2019-03-26T19:11:46.847Z,102186.33
2019-03-26T19:14:54.713Z,102184.88
2019-03-26T19:18:02.460Z,102183.63
2019-03-26T19:21:10.271Z,102184.88
2019-03-26T19:24:27.400Z,102195.92
2019-03-26T19:27:35.511Z,102199.83
2019-03-26T19:30:43.306Z,102202.75
2019-03-26T19:33:51.241Z,102210.86
2019-03-26T19:36:59.051Z,102209.56
2019-03-26T19:40:16.280Z,102212.53
2019-03-26T19:43:23.956Z,102214.25
2019-03-26T19:46:31.720Z,102216.35
2019-03-26T19:49:48.797Z,102207.78
2019-03-26T19:52:57.164Z,102217.22
2019-03-26T19:56:05.012Z,102221.09
2019-03-26T19:59:12.862Z,102227.46
2019-03-26T20:02:20.724Z,102230.86
2019-03-26T20:05:37.731Z,102221.45
2019-03-26T20:08:45.940Z,102217.26
2019-03-26T20:12:03.205Z,102221.05
2019-03-26T20:15:11.498Z,102224.52
2019-03-26T20:18:19.132Z,102227.95
2019-03-26T20:21:36.425Z,102225.00
2019-03-26T20:24:44.099Z,102236.44
2019-03-26T20:27:51.906Z,102227.09
2019-03-26T20:31:08.866Z,102234.63
2019-03-26T20:34:16.679Z,102237.27
2019-03-26T20:37:24.489Z,102247.05
2019-03-26T20:40:41.770Z,102237.23
2019-03-26T20:43:49.566Z,102244.48
2019-03-26T20:46:57.239Z,102252.58
2019-03-26T20:50:14.823Z,102249.55
2019-03-26T20:53:22.669Z,102265.39
2019-03-26T20:56:30.740Z,102265.35
2019-03-26T20:59:38.484Z,102269.12
2019-03-26T21:02:46.419Z,102269.20
2019-03-26T21:05:54.149Z,102266.63
2019-03-26T21:09:02.348Z,102274.31
2019-03-26T21:12:19.169Z,102270.44
2019-03-26T21:15:27.099Z,102275.66
2019-03-26T21:18:35.038Z,102277.70
2019-03-26T21:21:53.131Z,102268.77
2019-03-26T21:25:10.665Z,102279.39
2019-03-26T21:28:18.452Z,102281.09
2019-03-26T21:31:26.279Z,102274.28
2019-03-26T21:34:34.278Z,102273.80
2019-03-26T21:37:41.907Z,102275.93
2019-03-26T21:40:59.221Z,102278.46
2019-03-26T21:44:07.091Z,102277.63
2019-03-26T21:47:14.918Z,102290.51
2019-03-26T21:50:31.929Z,102281.89
2019-03-26T21:53:39.755Z,102285.03
2019-03-26T21:56:47.623Z,102295.58
2019-03-26T22:00:06.421Z,102291.31
2019-03-26T22:03:14.383Z,102298.95
2019-03-26T22:06:22.126Z,102297.30
2019-03-26T22:09:39.102Z,102293.91
2019-03-26T22:12:46.971Z,102297.81
2019-03-26T22:15:54.763Z,102302.88
2019-03-26T22:19:01.506Z,102306.69
2019-03-26T22:22:09.415Z,102304.55
2019-03-26T22:25:26.196Z,102303.70
2019-03-26T22:28:34.115Z,102318.67
2019-03-26T22:31:41.771Z,102322.09
2019-03-26T22:34:59.055Z,102326.34
2019-03-26T22:38:06.720Z,102326.36
2019-03-26T22:41:14.583Z,102327.63
2019-03-26T22:44:31.193Z,102335.73
2019-03-26T22:47:31.799Z,102333.66
2019-03-26T22:50:39.628Z,102332.80
2019-03-26T22:53:56.753Z,102343.40
2019-03-26T22:57:04.866Z,102360.52
2019-03-26T23:00:22.419Z,102346.41
2019-03-26T23:03:30.239Z,102360.08
2019-03-26T23:06:38.130Z,102364.74
2019-03-26T23:09:55.314Z,102372.33
2019-03-26T23:13:03.159Z,102371.55
2019-03-26T23:16:11.322Z,102370.69
2019-03-26T23:19:19.028Z,102374.56
2019-03-26T23:22:26.939Z,102371.98
2019-03-26T23:25:43.976Z,102371.52
2019-03-26T23:28:51.709Z,102373.69
2019-03-26T23:31:59.682Z,102380.11
2019-03-26T23:35:08.339Z,102383.48
2019-03-26T23:38:25.377Z,102378.75
2019-03-26T23:41:33.220Z,102376.22
2019-03-26T23:44:41.041Z,102375.79
2019-03-26T23:47:58.235Z,102371.05
2019-03-26T23:51:05.979Z,102375.34
2019-03-26T23:54:13.951Z,102369.84
2019-03-26T23:57:30.971Z,102372.80
